Post Mills, VT

10:21 PM EST on November 11, 2019 (GMT -0500)
Miller Pond | | Change Station
Active Advisory: Winter Weather Advisory

Elev 1325 ft 43.89 °N, 72.30 °W | Updated 19 seconds ago

Overcast
Overcast
28.2 °F
Feels Like 28 °F
N
0
Wind Variable Wind from South
Gusts 0.0 mph

Today
High -- | Low -- °F
--% Chance of Precip.
Yesterday
High -- | Low -- °F
Precip. -- in
Pressure 29.98 in
Visibility 5.0 miles
Clouds Overcast 400 ft
Windchill 28 °F
Dew Point 25 °F
Humidity 86%
Rainfall 0.01 in
Snow Depth Not available.
6:38 AM 4:27 PM
Full, 100% visible
SPECI KLEB 120308Z AUTO 36006KT 5SM HZ OVC004 M01/M03 A2998 RMK AO2 CIG 002V007 T10061033
Pressure 29.98 in
Visibility 5.0 miles
Clouds Overcast 400 ft
Windchill 28 °F
Dew Point 25 °F
Humidity 86%
Rainfall 0.01 in
Snow Depth Not available.
6:38 AM 4:27 PM
Full, 100% visible
SPECI KLEB 120308Z AUTO 36006KT 5SM HZ OVC004 M01/M03 A2998 RMK AO2 CIG 002V007 T10061033

Get Your Daily Forecast Email!

Thanks for signing up!

Be on the lookout for a verification email in your inbox.

You'll start receiving severe weather alerts in your inbox..

×

10-Day Weather Forecast

Almanac

Astronomy

Nov. 11, 2019 Rise Set
Actual Time
Civil Twilight
Nautical Twilight
Astronomical Twilight
Moon
Length of Visible Light
Length of Day
Tomorrow will be .
, % of the Moon is Illuminated

Today's Extremes

State Highs State Lows

Community

WunderPhotos

Category 6

Welcome to Category 6. This is the collective home for Weather Underground's featured writeups by Dr. Jeff Masters (right), Bob Henson (left), Chris Burt, and other regular contributors.

Nearby

Air Quality

  Air Quality AQ Index Pollutant
Not available.

Snow Depth

Station Depth Elevation

Earthquake Activity

City Distance Mag. Time & Date
Minimum magnitude displayed is 2.5.

Coastal Water Temperatures

Place Temperature

Stations

Nearby Weather Stations

Station Location Temp. Windchill Dew Point Humidity Wind Precip. Elev Updated Type
                   

Watches & Warnings

Winter Weather Advisory
Issued: 2:56 PM EST Nov. 11, 2019 – National Weather Service

... Winter Weather Advisory remains in effect until 1 PM EST
Tuesday...

* what... mixed precipitation expected. Total snow accumulations of
2 to 6 inches and ice accumulations less than a tenth of an inch.

* Where... most of central and southern Vermont.

* When... until 1 PM EST Tuesday.

* Impacts... travel could be very difficult.

* Additional details... a mix of sleet and freezing rain tonight,
followed by moderate to locally heavy snow Tuesday morning.
The Tuesday morning commute will be impacted.

Precautionary/preparedness actions...

Slow down and use caution while traveling.

Please allow extra time if travel is necessary.